Union Grove, Louisiana
Current Conditions -  °F | °C
As of 7:15 PM on Sunday 23 Nov 2014 (Local Time) from KIER Reporting Station
Clear Clear  
Wind Chill: 64°   Ceiling: Unl
Heat Index: 64°   Visibility: 10mi
Dew Point: 59°   Wind: 6mph
Humidity: 84%   Direction: 180°S
Pressure: 29.56"   Gusts: NA
Location:  31.6668°N, 92.8023°W
Report Text: KIER 240115Z AUTO 18005KT 10SM CLR 18/15 A2956 RMK AO2 T01780150
Loading
Personal Weather Stations






























Interactive Weather Map New forecast layout! Learn more

10-Day Weather Forecast

Advertisements
Track Severe Weather on mobile